Time;durP1;ratioP1;P1;durP2;ratioP2;P2;SDS_P1;SDS_P2;PMS_P1;PMS_P2;Temp;Humidity;BMP_temperature;BMP_pressure;BME280_temperature;BME280_humidity;BME280_pressure;Samples;Min_cycle;Max_cycle;Signal;HPM_P1;HPM_P2
2023/10/17 00:01:33;;;;;;;;;;;;;;;14.89;49.35;96839.22;4235690;28;5642;-67
2023/10/17 00:03:37;;;;;;;;;;;;;;;14.89;49.57;96841.88;4235694;28;5765;-70
2023/10/17 00:05:42;;;;;;;;;;;;;;;14.87;49.45;96852.75;4235617;28;5649;-69
2023/10/17 00:07:46;;;;;;;;;;;;;;;14.87;49.42;96847.44;4235339;28;5876;-72
2023/10/17 00:09:49;;;;;;;;;;;;;;;14.86;49.43;96845.81;4235483;28;5650;-72
2023/10/17 00:12:08;;;;;;;;;;;;;;;14.84;49.29;96848.69;4232805;27;5665;-70
2023/10/17 00:14:11;;;;;;;;;;;;;;;14.84;49.29;96853.19;4224039;28;5646;-69
2023/10/17 00:16:17;;;;;;;;;;;;;;;14.84;49.47;96843.38;4235578;27;5852;-70
2023/10/17 00:18:25;;;;;;;;;;;;;;;14.82;49.38;96833.94;4235650;28;5666;-67
2023/10/17 00:20:37;;;;;;;;;;;;;;;14.82;49.32;96840.09;4235207;27;5687;-66
2023/10/17 00:22:42;;;;;;;;;;;;;;;14.82;49.59;96829.44;4234998;28;7639;-68
2023/10/17 00:24:46;;;;;;;;;;;;;;;14.83;49.45;96827.59;4235381;28;5729;-72
2023/10/17 00:26:49;;;;;;;;;;;;;;;14.82;49.55;96823.31;4234064;28;5650;-68
2023/10/17 00:28:52;;;;;;;;;;;;;;;14.83;49.58;96830.25;4232420;28;6332;-73
2023/10/17 00:30:55;;;;;;;;;;;;;;;14.82;49.47;96816.13;4222555;28;5933;-68
2023/10/17 00:33:00;;;;;;;;;;;;;;;14.83;49.37;96816.94;4235043;28;5645;-74
2023/10/17 00:35:12;;;;;;;;;;;;;;;14.83;49.67;96819.63;4235103;28;5643;-70
2023/10/17 00:37:15;;;;;;;;;;;;;;;14.83;49.65;96819.63;4234956;28;5778;-75
2023/10/17 00:39:22;;;;;;;;;;;;;;;14.83;49.56;96819.63;4235031;28;5661;-69
2023/10/17 00:41:30;;;;;;;;;;;;;;;14.81;49.49;96824.34;4235017;28;5657;-73
2023/10/17 00:43:35;;;;;;;;;;;;;;;14.81;49.45;96824.34;4235117;28;5747;-68
2023/10/17 00:45:37;;;;;;;;;;;;;;;14.81;49.82;96822.50;4234235;28;5634;-75
2023/10/17 00:47:41;;;;;;;;;;;;;;;14.80;49.75;96820.06;4228475;28;5659;-74
2023/10/17 00:49:49;;;;;;;;;;;;;;;14.80;49.65;96820.06;4234776;28;5654;-67
2023/10/17 00:51:55;;;;;;;;;;;;;;;14.79;49.81;96824.56;4234446;28;5639;-76
2023/10/17 00:54:00;;;;;;;;;;;;;;;14.79;49.63;96821.91;4234950;28;5739;-72
2023/10/17 00:56:04;;;;;;;;;;;;;;;14.79;49.66;96813.09;4234932;27;5785;-75
2023/10/17 00:58:06;;;;;;;;;;;;;;;14.79;49.88;96813.09;4234651;28;5639;-70
2023/10/17 01:00:16;;;;;;;;;;;;;;;14.78;49.63;96809.63;4233668;28;5638;-71
2023/10/17 01:02:22;;;;;;;;;;;;;;;14.79;49.94;96815.78;4226917;28;5802;-73
2023/10/17 01:04:28;;;;;;;;;;;;;;;14.78;49.76;96809.63;4233179;28;5678;-68
2023/10/17 01:06:37;;;;;;;;;;;;;;;14.78;49.70;96809.63;4233958;28;5683;-75
2023/10/17 01:08:44;;;;;;;;;;;;;;;14.77;49.65;96805.34;4234278;28;6347;-76
2023/10/17 01:10:48;;;;;;;;;;;;;;;14.77;49.88;96802.69;4232507;28;5729;-72
2023/10/17 01:12:52;;;;;;;;;;;;;;;14.76;50.11;96798.41;4229919;28;5669;-75
2023/10/17 01:14:56;;;;;;;;;;;;;;;14.78;50.01;96795.50;4234651;27;6354;-72
2023/10/17 01:17:05;;;;;;;;;;;;;;;14.78;49.86;96792.84;4234507;28;5677;-69
2023/10/17 01:19:11;;;;;;;;;;;;;;;14.80;49.93;96793.44;4234132;28;6366;-73
2023/10/17 01:21:14;;;;;;;;;;;;;;;14.79;50.08;96795.28;4219942;28;5759;-76
2023/10/17 01:23:20;;;;;;;;;;;;;;;14.81;49.91;96795.06;4232832;28;5729;-77
2023/10/17 01:25:26;;;;;;;;;;;;;;;14.81;50.26;96798.53;4234292;28;5784;-75
2023/10/17 01:27:29;;;;;;;;;;;;;;;14.82;50.30;96796.69;4234642;28;5798;-71
2023/10/17 01:29:32;;;;;;;;;;;;;;;14.83;50.18;96795.66;4234539;28;6470;-68
2023/10/17 01:31:38;;;;;;;;;;;;;;;14.84;50.10;96795.47;4233759;28;5674;-74
2023/10/17 01:33:43;;;;;;;;;;;;;;;14.85;50.24;96791.78;4231996;28;5733;-71
2023/10/17 01:35:47;;;;;;;;;;;;;;;14.87;50.18;96783.56;4217309;28;5671;-76
2023/10/17 01:37:52;;;;;;;;;;;;;;;14.87;50.28;96780.09;4217784;28;5767;-74
2023/10/17 01:39:54;;;;;;;;;;;;;;;14.87;50.19;96778.22;4221540;28;6410;-70
2023/10/17 01:41:59;;;;;;;;;;;;;;;14.89;50.37;96770.84;4234320;28;5754;-73
2023/10/17 01:44:02;;;;;;;;;;;;;;;14.90;50.26;96780.44;4234172;28;5670;-76
2023/10/17 01:46:08;;;;;;;;;;;;;;;14.92;50.07;96775.72;4234343;27;5630;-72
2023/10/17 01:48:13;;;;;;;;;;;;;;;14.93;50.44;96780.00;4234180;28;5645;-75
2023/10/17 01:50:16;;;;;;;;;;;;;;;14.95;50.47;96777.13;4233797;28;5750;-72
2023/10/17 01:52:19;;;;;;;;;;;;;;;14.94;50.56;96773.63;4233711;28;5642;-70
2023/10/17 01:54:23;;;;;;;;;;;;;;;14.96;50.59;96773.44;4233728;28;5650;-74
2023/10/17 01:56:26;;;;;;;;;;;;;;;14.97;50.58;96778.53;4234198;28;5736;-74
2023/10/17 01:58:31;;;;;;;;;;;;;;;14.98;50.37;96779.34;4217197;28;5688;-71
2023/10/17 02:00:38;;;;;;;;;;;;;;;15.00;50.59;96782.59;4218022;28;5675;-73
2023/10/17 02:02:42;;;;;;;;;;;;;;;14.99;50.67;96778.31;4236065;27;5653;-66
2023/10/17 02:04:47;;;;;;;;;;;;;;;15.01;50.69;96782.38;4233771;28;5994;-71
2023/10/17 02:06:50;;;;;;;;;;;;;;;15.01;50.71;96779.72;4233770;28;6863;-71
2023/10/17 02:08:54;;;;;;;;;;;;;;;15.01;50.75;96779.72;4233964;28;5832;-70
2023/10/17 02:10:56;;;;;;;;;;;;;;;15.03;50.56;96785.63;4230602;28;5679;-75
2023/10/17 02:13:00;;;;;;;;;;;;;;;15.03;50.63;96782.97;4218552;28;5658;-74
2023/10/17 02:15:05;;;;;;;;;;;;;;;15.04;50.56;96792.59;4224067;28;5889;-74
2023/10/17 02:17:11;;;;;;;;;;;;;;;15.05;50.82;96782.75;4232395;28;5643;-70
2023/10/17 02:19:14;;;;;;;;;;;;;;;15.06;50.55;96781.69;4234051;28;5640;-75
2023/10/17 02:21:20;;;;;;;;;;;;;;;15.08;50.87;96788.47;4233627;28;5733;-71
2023/10/17 02:23:27;;;;;;;;;;;;;;;15.09;50.65;96792.75;4233434;28;5613;-76
2023/10/17 02:25:34;;;;;;;;;;;;;;;15.10;50.76;96782.91;4225951;28;5662;-73
2023/10/17 02:27:38;;;;;;;;;;;;;;;15.10;50.93;96789.03;4233106;28;5666;-70
2023/10/17 02:29:41;;;;;;;;;;;;;;;15.13;51.03;96787.78;4227552;28;5762;-69
2023/10/17 02:31:52;;;;;;;;;;;;;;;15.14;50.96;96782.22;4233631;28;5637;-71
2023/10/17 02:33:55;;;;;;;;;;;;;;;15.16;51.01;96779.34;4233716;28;5745;-71
2023/10/17 02:36:08;;;;;;;;;;;;;;;15.17;50.78;96780.16;4228999;28;5671;-69
2023/10/17 02:38:11;;;;;;;;;;;;;;;15.17;51.07;96778.31;4233637;28;5653;-72
2023/10/17 02:40:20;;;;;;;;;;;;;;;15.17;50.85;96783.63;4236942;28;6472;-67
2023/10/17 02:42:23;;;;;;;;;;;;;;;15.19;50.87;96791.41;4236931;28;5666;-71
2023/10/17 02:44:26;;;;;;;;;;;;;;;15.20;51.09;96785.06;4236947;28;5665;-71
2023/10/17 02:46:30;;;;;;;;;;;;;;;15.21;50.98;96792.00;4229262;28;5654;-70
2023/10/17 02:48:40;;;;;;;;;;;;;;;15.22;51.17;96790.97;4236848;28;5662;-68
2023/10/17 02:50:58;;;;;;;;;;;;;;;15.22;51.21;96798.97;4236630;28;5901;-70
2023/10/17 02:53:02;;;;;;;;;;;;;;;15.25;51.00;96798.50;4236573;28;5658;-72
2023/10/17 02:55:08;;;;;;;;;;;;;;;15.24;51.04;96800.34;4231058;28;5675;-71
2023/10/17 02:57:10;;;;;;;;;;;;;;;15.25;51.08;96791.34;4234696;28;5816;-70
2023/10/17 02:59:17;;;;;;;;;;;;;;;15.26;51.33;96794.81;4236622;27;5646;-72
2023/10/17 03:01:19;;;;;;;;;;;;;;;15.28;51.08;96795.38;4236334;27;5662;-69
2023/10/17 03:03:22;;;;;;;;;;;;;;;15.28;51.33;96800.72;4229056;28;5678;-70
2023/10/17 03:05:27;;;;;;;;;;;;;;;15.28;51.29;96795.38;4236882;28;5666;-70
2023/10/17 03:07:30;;;;;;;;;;;;;;;15.29;51.25;96789.88;4236367;28;5643;-75
2023/10/17 03:09:39;;;;;;;;;;;;;;;15.29;51.16;96787.22;4236581;28;5654;-72
2023/10/17 03:11:47;;;;;;;;;;;;;;;15.31;51.33;96786.97;4236420;28;5636;-71
2023/10/17 03:13:52;;;;;;;;;;;;;;;15.32;51.44;96788.59;4236474;27;5654;-74
2023/10/17 03:15:56;;;;;;;;;;;;;;;15.32;51.49;96786.75;4235301;28;5720;-68
2023/10/17 03:18:01;;;;;;;;;;;;;;;15.33;51.36;96792.88;4232352;28;5658;-70
2023/10/17 03:20:08;;;;;;;;;;;;;;;15.34;51.25;96792.66;4225328;28;5611;-68
2023/10/17 03:22:24;;;;;;;;;;;;;;;15.33;51.55;96787.56;4234899;28;7691;-68
2023/10/17 03:24:38;;;;;;;;;;;;;;;15.34;51.36;96790.00;4231071;28;5642;-69
2023/10/17 03:26:54;;;;;;;;;;;;;;;15.35;51.37;96801.47;4236141;28;5643;-68
2023/10/17 03:28:55;;;;;;;;;;;;;;;15.35;51.70;96796.13;4236205;28;5709;-68
2023/10/17 03:30:58;;;;;;;;;;;;;;;15.35;51.69;96793.47;4236015;28;5661;-69
2023/10/17 03:33:08;;;;;;;;;;;;;;;15.36;51.81;96795.91;4236086;28;5638;-68
2023/10/17 03:35:20;;;;;;;;;;;;;;;15.37;51.88;96796.72;4235824;28;5649;-68
2023/10/17 03:37:31;;;;;;;;;;;;;;;15.36;51.83;96798.56;4235286;28;5653;-68
2023/10/17 03:39:50;;;;;;;;;;;;;;;15.38;51.95;96793.03;4228735;28;5820;-69
2023/10/17 03:41:56;;;;;;;;;;;;;;;15.37;51.98;96792.22;4227403;28;5755;-67
2023/10/17 03:44:01;;;;;;;;;;;;;;;15.38;51.79;96787.69;4235939;27;5759;-68
2023/10/17 03:46:04;;;;;;;;;;;;;;;15.38;51.81;96790.34;4235645;28;5657;-68
2023/10/17 03:48:13;;;;;;;;;;;;;;;15.38;51.95;96795.69;4235483;27;5753;-67
2023/10/17 03:50:31;;;;;;;;;;;;;;;15.38;52.10;96790.34;4235708;28;5858;-68
2023/10/17 03:52:36;;;;;;;;;;;;;;;15.38;52.16;96790.34;4235365;28;5674;-68
2023/10/17 03:54:39;;;;;;;;;;;;;;;15.37;52.19;96786.06;4229131;28;5646;-69
2023/10/17 03:56:45;;;;;;;;;;;;;;;15.35;52.30;96777.50;4235520;28;5642;-69
2023/10/17 03:58:52;;;;;;;;;;;;;;;15.34;52.30;96784.69;4235737;28;5755;-70
2023/10/17 04:00:56;;;;;;;;;;;;;;;15.34;52.07;96783.84;4235370;28;5666;-68
2023/10/17 04:02:59;;;;;;;;;;;;;;;15.34;52.40;96784.69;4235467;27;5650;-67
2023/10/17 04:05:07;;;;;;;;;;;;;;;15.36;52.45;96785.25;4235586;28;5650;-69
2023/10/17 04:07:11;;;;;;;;;;;;;;;15.38;52.41;96785.03;4235493;27;5662;-69
2023/10/17 04:09:21;;;;;;;;;;;;;;;15.41;52.30;96789.94;4235582;27;6010;-68
2023/10/17 04:11:28;;;;;;;;;;;;;;;15.39;52.54;96782.13;4227947;28;6886;-68
2023/10/17 04:13:35;;;;;;;;;;;;;;;15.42;52.29;96787.03;4235337;27;5652;-67
2023/10/17 04:15:42;;;;;;;;;;;;;;;15.42;52.37;96783.56;4235354;28;5766;-66
2023/10/17 04:17:47;;;;;;;;;;;;;;;15.43;52.50;96782.53;4235442;28;5809;-66
2023/10/17 04:19:49;;;;;;;;;;;;;;;15.42;52.58;96781.72;4235321;27;5657;-65
2023/10/17 04:22:01;;;;;;;;;;;;;;;15.41;52.42;96782.75;4233807;28;5841;-66
2023/10/17 04:24:27;;;;;;;;;;;;;;;15.40;52.61;96774.97;4228227;28;5634;-66
2023/10/17 04:26:34;;;;;;;;;;;;;;;15.39;52.59;96782.13;4234591;28;5671;-66
2023/10/17 04:28:41;;;;;;;;;;;;;;;15.40;52.82;96772.28;4232768;28;5658;-66
2023/10/17 04:30:47;;;;;;;;;;;;;;;15.39;52.80;96760.00;4234906;28;5841;-66
2023/10/17 04:32:52;;;;;;;;;;;;;;;15.40;52.66;96756.31;4235079;28;5661;-67
2023/10/17 04:34:56;;;;;;;;;;;;;;;15.40;52.94;96772.28;4230445;28;5650;-68
2023/10/17 04:37:03;;;;;;;;;;;;;;;15.38;52.99;96758.38;4234589;28;5658;-69
2023/10/17 04:39:18;;;;;;;;;;;;;;;15.38;52.89;96766.38;4235001;28;5766;-67
2023/10/17 04:41:36;;;;;;;;;;;;;;;15.41;52.79;96765.97;4235022;28;5670;-68
2023/10/17 04:43:54;;;;;;;;;;;;;;;15.42;52.86;96759.59;4227399;28;5747;-68
2023/10/17 04:45:57;;;;;;;;;;;;;;;15.43;52.89;96762.03;4230538;28;6496;-68
2023/10/17 04:48:11;;;;;;;;;;;;;;;15.43;53.08;96751.38;4234480;28;5858;-67
2023/10/17 04:50:16;;;;;;;;;;;;;;;15.44;52.91;96757.50;4234587;28;5732;-68
2023/10/17 04:52:20;;;;;;;;;;;;;;;15.44;52.83;96762.84;4232814;28;5698;-67
2023/10/17 04:54:31;;;;;;;;;;;;;;;15.43;52.98;96761.22;4234409;28;5784;-67
2023/10/17 04:56:55;;;;;;;;;;;;;;;15.43;53.05;96758.56;4227114;28;5646;-66
2023/10/17 04:59:01;;;;;;;;;;;;;;;15.43;53.22;96762.03;4230280;28;5730;-67
2023/10/17 05:01:17;;;;;;;;;;;;;;;15.45;53.16;96764.47;4229532;28;5695;-67
2023/10/17 05:03:27;;;;;;;;;;;;;;;15.45;53.15;96769.78;4234135;27;5741;-67
2023/10/17 05:06:00;;;;;;;;;;;;;;;15.46;53.17;96783.94;4226226;28;5713;-67
2023/10/17 05:08:11;;;;;;;;;;;;;;;15.46;53.08;96773.25;4229991;28;5930;-67
2023/10/17 06:16:51;;;;;;;;;;;;;;;15.35;53.73;96780.16;4118392;28;5964;-67
2023/10/17 06:18:57;;;;;;;;;;;;;;;15.37;53.71;96786.06;4119194;28;5821;-67
2023/10/17 06:21:06;;;;;;;;;;;;;;;15.38;53.81;96793.03;4119066;28;5877;-67
2023/10/17 06:24:05;;;;;;;;;;;;;;;15.37;53.83;96788.72;4118386;28;5951;-67
2023/10/17 06:26:06;;;;;;;;;;;;;;;15.37;53.91;96794.06;4113528;28;5940;-67
2023/10/17 06:28:25;;;;;;;;;;;;;;;15.37;53.63;96800.19;4118989;28;5864;-67
2023/10/17 06:30:33;;;;;;;;;;;;;;;15.39;53.91;96797.31;4110603;28;5938;-67
2023/10/17 06:33:04;;;;;;;;;;;;;;;15.41;53.68;96805.91;4116891;28;5865;-67
2023/10/17 06:35:20;;;;;;;;;;;;;;;15.41;53.77;96800.59;4119674;28;5877;-68
2023/10/17 06:37:30;;;;;;;;;;;;;;;15.43;53.71;96801.19;4165712;28;5609;-67
2023/10/17 06:39:37;;;;;;;;;;;;;;;15.42;53.63;96804.88;4165810;28;5787;-68
2023/10/17 06:41:39;;;;;;;;;;;;;;;15.42;53.78;96813.69;4165675;28;5600;-69
2023/10/17 06:43:46;;;;;;;;;;;;;;;15.43;53.99;96809.97;4159618;28;5874;-68
2023/10/17 06:45:54;;;;;;;;;;;;;;;15.45;54.02;96815.06;4207318;28;5768;-69
2023/10/17 06:47:58;;;;;;;;;;;;;;;15.46;53.81;96808.72;4236601;28;5856;-68
2023/10/17 06:50:17;;;;;;;;;;;;;;;15.48;53.79;96808.47;4236277;28;5729;-68
2023/10/17 06:52:23;;;;;;;;;;;;;;;15.48;53.91;96814.63;4235062;28;5740;-69
2023/10/17 06:54:26;;;;;;;;;;;;;;;15.48;53.80;96817.28;4227662;28;5748;-69
2023/10/17 06:56:31;;;;;;;;;;;;;;;15.50;53.95;96814.41;4236063;28;5740;-67
2023/10/17 06:58:34;;;;;;;;;;;;;;;15.49;53.79;96815.44;4236199;28;5741;-68
2023/10/17 07:03:03;;;;;;;;;;;;;;;15.52;53.72;96818.50;4229382;28;5677;-68
2023/10/17 07:05:07;;;;;;;;;;;;;;;15.52;53.83;96817.69;4233563;28;6575;-67
2023/10/17 07:07:10;;;;;;;;;;;;;;;15.51;53.81;96822.16;4234221;28;5696;-69
2023/10/17 07:09:18;;;;;;;;;;;;;;;15.52;53.74;96815.00;4236055;28;5745;-67
2023/10/17 07:11:29;;;;;;;;;;;;;;;15.54;53.84;96820.94;4235955;28;6396;-68
2023/10/17 07:13:54;;;;;;;;;;;;;;;15.51;53.83;96816.84;4233996;28;5721;-67
2023/10/17 07:16:04;;;;;;;;;;;;;;;15.51;53.86;96811.50;4235512;28;5749;-67
2023/10/17 07:21:14;;;;;;;;;;;;;;;15.54;54.07;96810.25;4234723;28;5763;-67
2023/10/17 07:22:53;;;;;;;;;;;;;;;15.57;53.68;96815.13;4234471;28;5645;-67
2023/10/17 07:25:01;;;;;;;;;;;;;;;15.58;53.80;96811.44;4232606;28;5874;-68
2023/10/17 07:27:11;;;;;;;;;;;;;;;15.59;53.62;96810.41;4230254;28;5749;-69
2023/10/17 07:29:15;;;;;;;;;;;;;;;15.61;53.71;96821.66;4235819;28;5748;-68
2023/10/17 07:31:20;;;;;;;;;;;;;;;15.60;53.62;96815.53;4230885;28;5642;-70
2023/10/17 07:33:23;;;;;;;;;;;;;;;15.62;53.58;96809.97;4235113;28;5646;-67
2023/10/17 07:35:30;;;;;;;;;;;;;;;15.61;53.64;96809.16;4229806;28;5096;-69
2023/10/17 07:37:48;;;;;;;;;;;;;;;15.62;53.82;96808.13;4223574;28;5746;-70
2023/10/17 07:40:16;;;;;;;;;;;;;;;15.64;53.73;96814.06;4235118;28;5878;-68
2023/10/17 07:42:30;;;;;;;;;;;;;;;15.66;53.66;96811.97;4232400;28;5654;-69
2023/10/17 07:44:34;;;;;;;;;;;;;;;15.69;53.50;96806.19;4227602;28;5826;-69
2023/10/17 07:46:38;;;;;;;;;;;;;;;15.70;53.55;96815.00;4227217;28;5907;-70
2023/10/17 07:48:44;;;;;;;;;;;;;;;15.68;53.43;96799.25;4229094;28;5678;-68
2023/10/17 07:50:48;;;;;;;;;;;;;;;15.69;53.51;96802.72;4229049;28;5749;-69
2023/10/17 07:52:51;;;;;;;;;;;;;;;15.68;53.34;96795.75;4227365;28;5723;-68
2023/10/17 07:54:57;;;;;;;;;;;;;;;15.70;53.57;96802.50;4232819;28;5650;-68
2023/10/17 07:57:00;;;;;;;;;;;;;;;15.72;53.59;96803.06;4233617;28;5694;-69
2023/10/17 07:59:08;;;;;;;;;;;;;;;15.72;53.33;96808.41;4231068;27;5889;-69
2023/10/17 08:01:16;;;;;;;;;;;;;;;15.75;53.42;96809.00;4232859;28;5864;-68
2023/10/17 08:03:20;;;;;;;;;;;;;;;15.74;53.51;96805.50;4232883;28;5741;-70
2023/10/17 08:05:26;;;;;;;;;;;;;;;15.76;53.26;96811.44;4232218;28;5753;-69
2023/10/17 08:07:29;;;;;;;;;;;;;;;15.76;53.25;96811.44;4223927;28;5729;-69
2023/10/17 08:09:40;;;;;;;;;;;;;;;15.76;53.46;96815.97;4224081;27;5744;-67
2023/10/17 08:11:43;;;;;;;;;;;;;;;15.76;53.35;96808.78;4233900;28;7683;-69
2023/10/17 08:13:48;;;;;;;;;;;;;;;15.77;53.35;96809.59;4232633;28;5658;-68
2023/10/17 08:15:53;;;;;;;;;;;;;;;15.79;53.45;96810.19;4233146;28;5829;-69
2023/10/17 08:17:58;;;;;;;;;;;;;;;15.80;53.28;96804.63;4233493;28;5092;-69
2023/10/17 08:20:08;;;;;;;;;;;;;;;15.81;53.14;96806.25;4230970;28;5761;-69
2023/10/17 08:22:17;;;;;;;;;;;;;;;15.82;53.01;96807.88;4233452;28;5650;-68
2023/10/17 08:24:26;;;;;;;;;;;;;;;15.82;53.41;96805.19;4231992;28;6470;-69
2023/10/17 08:26:33;;;;;;;;;;;;;;;15.81;53.09;96806.25;4222801;28;6627;-70
2023/10/17 08:28:37;;;;;;;;;;;;;;;15.84;53.33;96804.97;4233129;27;5745;-69
2023/10/17 08:30:40;;;;;;;;;;;;;;;15.86;53.09;96805.59;4232905;28;5685;-69
2023/10/17 08:32:55;;;;;;;;;;;;;;;15.85;53.36;96798.59;4229436;28;5798;-69
2023/10/17 08:34:59;;;;;;;;;;;;;;;15.89;53.26;96808.59;4228168;28;5733;-69
2023/10/17 08:37:07;;;;;;;;;;;;;;;15.92;53.01;96812.66;4232051;28;5642;-68
2023/10/17 08:41:27;;;;;;;;;;;;;;;15.93;53.06;96804.44;4216597;28;5086;-68
2023/10/17 08:43:32;;;;;;;;;;;;;;;15.92;53.09;96807.34;4225882;27;5662;-68
2023/10/17 08:45:37;;;;;;;;;;;;;;;15.92;52.95;96804.66;4237176;27;5910;-69
2023/10/17 08:47:42;;;;;;;;;;;;;;;15.94;52.98;96806.06;4233037;28;5748;-69
2023/10/17 08:49:47;;;;;;;;;;;;;;;15.97;53.02;96807.47;4231005;28;5729;-68
2023/10/17 08:51:51;;;;;;;;;;;;;;;15.96;53.01;96806.63;4231852;28;5646;-69
2023/10/17 08:53:54;;;;;;;;;;;;;;;15.94;52.89;96806.06;4231988;28;5658;-70
2023/10/17 08:55:58;;;;;;;;;;;;;;;15.91;52.88;96803.03;4232816;28;5673;-68
2023/10/17 08:58:04;;;;;;;;;;;;;;;15.92;52.87;96799.34;4232873;28;5932;-68
2023/10/17 09:00:23;;;;;;;;;;;;;;;15.92;52.83;96800.16;4226033;28;5667;-71
2023/10/17 09:02:30;;;;;;;;;;;;;;;15.96;52.59;96800.50;4223899;28;5816;-68
2023/10/17 09:04:33;;;;;;;;;;;;;;;15.97;52.61;96799.47;4224918;28;5845;-67
2023/10/17 09:06:48;;;;;;;;;;;;;;;15.98;52.34;96798.44;4232843;27;5710;-67
2023/10/17 09:08:55;;;;;;;;;;;;;;;15.98;52.38;96795.78;4229470;28;5657;-67
2023/10/17 09:11:07;;;;;;;;;;;;;;;15.97;52.36;96794.97;4228628;28;5736;-68
2023/10/17 09:13:52;;;;;;;;;;;;;;;15.95;52.33;96797.00;4227230;28;5737;-68
2023/10/17 09:15:49;;;;;;;;;;;;;;;15.93;52.36;96798.28;4224600;28;5786;-67
2023/10/17 09:18:06;;;;;;;;;;;;;;;15.91;52.23;96795.03;4229060;28;5802;-68
2023/10/17 09:20:16;;;;;;;;;;;;;;;15.87;52.52;96800.03;4228468;28;5957;-68
2023/10/17 09:22:36;;;;;;;;;;;;;;;15.85;52.30;96795.94;4238974;27;5708;-70
2023/10/17 09:24:40;;;;;;;;;;;;;;;15.82;52.23;96791.06;4225773;28;5658;-69
2023/10/17 09:26:43;;;;;;;;;;;;;;;15.80;52.42;96795.81;4232150;28;5702;-66
2023/10/17 09:28:48;;;;;;;;;;;;;;;15.79;52.56;96792.34;4232653;28;5753;-65
2023/10/17 09:30:56;;;;;;;;;;;;;;;15.82;52.33;96785.72;4227440;28;5733;-65
2023/10/17 09:33:00;;;;;;;;;;;;;;;15.83;52.42;96787.34;4227570;28;5841;-68
2023/10/17 09:35:10;;;;;;;;;;;;;;;15.82;52.39;96785.72;4228971;28;5653;-65
2023/10/17 09:37:14;;;;;;;;;;;;;;;15.81;52.26;96784.09;4232087;28;6188;-65
2023/10/17 09:39:27;;;;;;;;;;;;;;;15.83;52.58;96780.16;4231828;28;5749;-66
2023/10/17 09:41:40;;;;;;;;;;;;;;;15.87;52.38;96783.22;4232227;28;5740;-65
2023/10/17 09:43:43;;;;;;;;;;;;;;;15.89;52.34;96784.59;4232298;28;6561;-65
2023/10/17 09:45:49;;;;;;;;;;;;;;;15.91;52.32;96781.72;4231597;28;5928;-64
2023/10/17 09:47:57;;;;;;;;;;;;;;;15.90;52.48;96785.41;4231214;28;5745;-64
2023/10/17 09:50:03;;;;;;;;;;;;;;;15.88;52.53;96784.84;4228644;28;5682;-65
2023/10/17 09:52:09;;;;;;;;;;;;;;;15.87;52.38;96776.03;4229548;28;5669;-65
2023/10/17 09:54:16;;;;;;;;;;;;;;;15.88;52.53;96774.19;4232422;28;5213;-65
2023/10/17 09:56:26;;;;;;;;;;;;;;;15.87;52.58;96773.38;4232379;28;8468;-66
2023/10/17 09:58:36;;;;;;;;;;;;;;;15.91;52.58;96781.72;4224654;28;5560;-66
2023/10/17 10:00:46;;;;;;;;;;;;;;;15.92;52.63;96772.66;4241001;27;7883;-65
2023/10/17 10:02:50;;;;;;;;;;;;;;;15.95;52.55;96781.03;4232313;28;5752;-65
2023/10/17 10:05:25;;;;;;;;;;;;;;;15.96;52.56;96766.66;4232554;28;5639;-66
2023/10/17 10:07:32;;;;;;;;;;;;;;;15.98;52.53;96777.09;4215784;28;5754;-66
2023/10/17 10:09:37;;;;;;;;;;;;;;;15.99;52.56;96768.06;4231648;28;5674;-65
2023/10/17 10:12:01;;;;;;;;;;;;;;;16.00;52.64;96770.50;4232279;28;5658;-65
2023/10/17 10:14:08;;;;;;;;;;;;;;;16.00;52.48;96773.16;4232080;28;5857;-66
2023/10/17 10:16:11;;;;;;;;;;;;;;;16.02;52.55;96764.94;4232586;28;5655;-65
2023/10/17 10:18:14;;;;;;;;;;;;;;;16.04;52.68;96768.19;4232076;28;5638;-66
2023/10/17 10:20:18;;;;;;;;;;;;;;;16.06;52.68;96760.75;4232127;28;5638;-65
2023/10/17 10:22:20;;;;;;;;;;;;;;;16.06;52.57;96759.94;4231872;27;5765;-65
2023/10/17 10:24:27;;;;;;;;;;;;;;;16.07;52.65;96767.72;4225306;27;5679;-66
2023/10/17 10:26:30;;;;;;;;;;;;;;;16.07;52.67;96766.91;4224487;27;5745;-66
2023/10/17 10:28:34;;;;;;;;;;;;;;;16.08;52.26;96764.00;4229904;28;5757;-66
2023/10/17 10:30:43;;;;;;;;;;;;;;;16.09;52.57;96763.00;4225481;28;5728;-66
2023/10/17 10:32:50;;;;;;;;;;;;;;;16.12;52.43;96759.06;4225573;28;5597;-71
2023/10/17 10:34:52;;;;;;;;;;;;;;;16.13;52.67;96764.16;4232062;28;5730;-66
2023/10/17 10:36:59;;;;;;;;;;;;;;;16.16;52.61;96754.88;4232299;28;5661;-65
2023/10/17 10:39:12;;;;;;;;;;;;;;;16.16;52.62;96750.34;4240679;27;5630;-65
2023/10/17 10:41:18;;;;;;;;;;;;;;;16.13;52.72;96755.34;4226272;27;5766;-66
2023/10/17 10:43:21;;;;;;;;;;;;;;;16.11;52.57;96752.91;4231251;27;6364;-66
2023/10/17 10:45:35;;;;;;;;;;;;;;;16.12;52.73;96751.88;4232167;28;6195;-66
2023/10/17 10:47:39;;;;;;;;;;;;;;;16.13;52.55;96747.34;4225756;28;5766;-65
2023/10/17 10:49:42;;;;;;;;;;;;;;;16.14;52.75;96741.78;4232184;28;5642;-65
2023/10/17 10:51:48;;;;;;;;;;;;;;;16.15;52.59;96754.06;4224159;28;5788;-65
2023/10/17 10:53:56;;;;;;;;;;;;;;;16.16;52.67;96749.53;4223449;28;5675;-66
2023/10/17 10:56:00;;;;;;;;;;;;;;;16.14;52.76;96738.28;4221972;28;5641;-66
2023/10/17 10:58:04;;;;;;;;;;;;;;;16.14;52.66;96738.28;4224882;27;5735;-65
2023/10/17 11:00:09;;;;;;;;;;;;;;;16.16;52.75;96734.34;4226069;28;5829;-66
2023/10/17 11:02:14;;;;;;;;;;;;;;;16.19;52.91;96733.06;4227769;28;5729;-66
2023/10/17 11:04:17;;;;;;;;;;;;;;;16.21;52.72;96731.81;4234448;28;5741;-65
2023/10/17 11:06:24;;;;;;;;;;;;;;;16.24;52.63;96731.34;4225865;28;6502;-66
2023/10/17 11:08:36;;;;;;;;;;;;;;;16.26;52.51;96725.78;4237065;27;5671;-66
2023/10/17 11:10:39;;;;;;;;;;;;;;;16.27;52.67;96727.41;4231035;27;5745;-65
2023/10/17 11:12:53;;;;;;;;;;;;;;;16.27;52.81;96727.41;4233317;27;5741;-65
2023/10/17 11:15:12;;;;;;;;;;;;;;;16.30;52.62;96724.28;4235549;27;5822;-65
2023/10/17 11:17:18;;;;;;;;;;;;;;;16.32;52.80;96710.72;4236739;27;6505;-65
2023/10/17 11:19:21;;;;;;;;;;;;;;;16.30;52.53;96716.28;4238264;27;5736;-65
2023/10/17 11:21:24;;;;;;;;;;;;;;;16.32;52.79;96702.72;4231805;28;5758;-65
2023/10/17 11:23:28;;;;;;;;;;;;;;;16.33;52.64;96702.50;4225728;28;5766;-65
2023/10/17 11:25:34;;;;;;;;;;;;;;;16.34;52.71;96701.44;4232995;28;5438;-66
2023/10/17 11:27:39;;;;;;;;;;;;;;;16.37;52.75;96702.84;4231832;27;7815;-65
2023/10/17 11:29:42;;;;;;;;;;;;;;;16.39;52.73;96695.41;4233074;28;5643;-64
2023/10/17 11:31:47;;;;;;;;;;;;;;;16.41;52.66;96679.97;4232990;28;5888;-66
2023/10/17 11:33:55;;;;;;;;;;;;;;;16.41;52.74;96682.63;4229655;28;5868;-65
2023/10/17 11:36:04;;;;;;;;;;;;;;;16.41;52.73;96683.44;4234387;27;5820;-65
2023/10/17 11:38:25;;;;;;;;;;;;;;;16.42;52.72;96681.59;4231381;28;5725;-64
2023/10/17 11:40:44;;;;;;;;;;;;;;;16.41;52.65;96679.97;4227780;28;5694;-65
2023/10/17 11:42:49;;;;;;;;;;;;;;;16.41;52.71;96674.63;4234179;28;5685;-64
2023/10/17 11:44:55;;;;;;;;;;;;;;;16.41;52.72;96671.97;4229076;27;5774;-64
2023/10/17 11:47:02;;;;;;;;;;;;;;;16.40;52.96;96662.34;4233526;27;5641;-64
2023/10/17 11:49:20;;;;;;;;;;;;;;;16.41;52.85;96666.63;4229496;28;5695;-65
2023/10/17 11:51:29;;;;;;;;;;;;;;;16.41;52.82;96666.63;4233842;28;5658;-65
2023/10/17 11:53:31;;;;;;;;;;;;;;;16.41;52.88;96661.28;4227960;28;5736;-65
2023/10/17 11:55:41;;;;;;;;;;;;;;;16.42;52.90;96668.25;4234311;28;5737;-65
2023/10/17 11:57:49;;;;;;;;;;;;;;;16.42;53.03;96661.09;4225654;28;7228;-65
2023/10/17 11:59:57;;;;;;;;;;;;;;;16.45;52.94;96649.13;4234060;28;5642;-65
2023/10/17 12:02:03;;;;;;;;;;;;;;;16.45;53.05;96657.13;4233806;28;5676;-64
2023/10/17 12:04:06;;;;;;;;;;;;;;;16.46;52.95;96650.75;4233992;28;5658;-65
2023/10/17 12:06:16;;;;;;;;;;;;;;;16.49;52.87;96647.59;4231569;27;5650;-65
2023/10/17 12:08:23;;;;;;;;;;;;;;;16.48;52.88;96649.47;4233577;28;6350;-66
2023/10/17 12:10:26;;;;;;;;;;;;;;;16.49;52.99;96650.28;4232627;28;5806;-65
2023/10/17 12:12:30;;;;;;;;;;;;;;;16.50;53.08;96647.38;4232301;27;5793;-65
2023/10/17 12:14:34;;;;;;;;;;;;;;;16.50;52.94;96647.38;4241295;27;5748;-65
2023/10/17 12:16:37;;;;;;;;;;;;;;;16.52;52.87;96642.59;4227443;28;5814;-65
2023/10/17 12:18:40;;;;;;;;;;;;;;;16.52;52.92;96637.28;4233292;28;5733;-65
2023/10/17 12:20:49;;;;;;;;;;;;;;;16.53;53.14;96638.06;4231632;28;5665;-65
2023/10/17 12:22:56;;;;;;;;;;;;;;;16.56;53.08;96632.28;4230225;27;5650;-65
2023/10/17 12:25:00;;;;;;;;;;;;;;;16.57;52.99;96632.06;4230032;28;5721;-65
2023/10/17 12:27:06;;;;;;;;;;;;;;;16.58;53.26;96625.66;4232040;27;5729;-64